Terminal Aerodrome Forecast
Issued by NWS Nashville, TN

Home | Current Version | Previous Version | Text Only | Print | Product List | Glossary On
Versions: 1 2 3 4 5 6 7 8 9 10 11 12 13 14 15 16 17 18 19 20 21 22 23 24 25 26 27 28 29 30 31 32 33 34 35 36 37 38 39 40 41 42 43 44 45 46 47 48 49 50
000
FTUS44 KOHX 060741 CCA
TAFCSV
TAF COR
KCSV 060741Z 0608/0706 00000KT 3SM BR BKN007
      TEMPO 0608/0609 1SM BR SCT007
     FM060900 00000KT 2SM BR BKN005
      TEMPO 0609/0613 1/2SM FG BKN003
     FM061400 26003KT P6SM SCT180=

USA.gov is the U.S. government's official web portal to all federal, state and local government web resources and services.